sensor_id;sensor_type;location;lat;lon;timestamp;temperature;humidity
11609;DHT22;5860;52.018;8.536;2022-11-20T00:01:16;-2.30;99.90
11609;DHT22;5860;52.018;8.536;2022-11-20T00:03:44;-2.40;99.90
11609;DHT22;5860;52.018;8.536;2022-11-20T00:06:14;-2.30;99.90
11609;DHT22;5860;52.018;8.536;2022-11-20T00:08:42;-2.40;99.90
11609;DHT22;5860;52.018;8.536;2022-11-20T00:11:12;-2.40;99.90
11609;DHT22;5860;52.018;8.536;2022-11-20T00:13:42;-2.40;99.90
11609;DHT22;5860;52.018;8.536;2022-11-20T00:16:12;-2.40;99.90
11609;DHT22;5860;52.018;8.536;2022-11-20T00:18:39;-2.40;99.90
11609;DHT22;5860;52.018;8.536;2022-11-20T00:21:13;-2.40;99.90
11609;DHT22;5860;52.018;8.536;2022-11-20T00:23:41;-2.40;99.90
11609;DHT22;5860;52.018;8.536;2022-11-20T00:26:13;-2.50;99.90
11609;DHT22;5860;52.018;8.536;2022-11-20T00:28:42;-2.40;99.90
11609;DHT22;5860;52.018;8.536;2022-11-20T00:31:11;-2.40;99.90
11609;DHT22;5860;52.018;8.536;2022-11-20T00:33:38;-2.30;99.90
11609;DHT22;5860;52.018;8.536;2022-11-20T00:36:08;-2.30;99.90
11609;DHT22;5860;52.018;8.536;2022-11-20T00:38:35;-2.30;99.90
11609;DHT22;5860;52.018;8.536;2022-11-20T00:41:05;-2.20;99.90
11609;DHT22;5860;52.018;8.536;2022-11-20T00:43:33;-2.20;99.90
11609;DHT22;5860;52.018;8.536;2022-11-20T00:46:17;-2.20;99.90
11609;DHT22;5860;52.018;8.536;2022-11-20T00:48:45;-2.20;99.90
11609;DHT22;5860;52.018;8.536;2022-11-20T00:51:16;-2.10;99.90
11609;DHT22;5860;52.018;8.536;2022-11-20T00:53:44;-2.30;99.90
11609;DHT22;5860;52.018;8.536;2022-11-20T00:56:13;-2.30;99.90
11609;DHT22;5860;52.018;8.536;2022-11-20T00:58:42;-2.40;99.90
11609;DHT22;5860;52.018;8.536;2022-11-20T01:01:12;-2.50;99.90
11609;DHT22;5860;52.018;8.536;2022-11-20T01:03:42;-2.60;99.90
11609;DHT22;5860;52.018;8.536;2022-11-20T01:08:37;-2.60;99.90
11609;DHT22;5860;52.018;8.536;2022-11-20T01:11:28;-2.60;99.90
11609;DHT22;5860;52.018;8.536;2022-11-20T01:13:54;-2.70;99.90
11609;DHT22;5860;52.018;8.536;2022-11-20T01:16:24;-2.70;99.90
11609;DHT22;5860;52.018;8.536;2022-11-20T01:18:53;-2.60;99.90
11609;DHT22;5860;52.018;8.536;2022-11-20T01:21:26;-2.60;99.90
11609;DHT22;5860;52.018;8.536;2022-11-20T01:23:54;-2.70;99.90
11609;DHT22;5860;52.018;8.536;2022-11-20T01:26:23;-2.70;99.90
11609;DHT22;5860;52.018;8.536;2022-11-20T01:28:51;-2.70;99.90
11609;DHT22;5860;52.018;8.536;2022-11-20T01:31:21;-2.70;99.90
11609;DHT22;5860;52.018;8.536;2022-11-20T01:33:50;-2.70;99.90
11609;DHT22;5860;52.018;8.536;2022-11-20T01:36:19;-2.70;99.90
11609;DHT22;5860;52.018;8.536;2022-11-20T01:38:48;-2.80;99.90
11609;DHT22;5860;52.018;8.536;2022-11-20T01:41:17;-2.80;99.90
11609;DHT22;5860;52.018;8.536;2022-11-20T01:44:03;-2.90;99.90
11609;DHT22;5860;52.018;8.536;2022-11-20T01:46:32;-3.00;99.90
11609;DHT22;5860;52.018;8.536;2022-11-20T01:49:04;-3.00;99.90
11609;DHT22;5860;52.018;8.536;2022-11-20T01:51:56;-3.00;99.90
11609;DHT22;5860;52.018;8.536;2022-11-20T01:54:35;-3.00;99.90
11609;DHT22;5860;52.018;8.536;2022-11-20T01:57:04;-3.00;99.90
11609;DHT22;5860;52.018;8.536;2022-11-20T01:59:33;-3.00;99.90
11609;DHT22;5860;52.018;8.536;2022-11-20T02:02:01;-3.00;99.90
11609;DHT22;5860;52.018;8.536;2022-11-20T02:04:27;-2.90;99.90
11609;DHT22;5860;52.018;8.536;2022-11-20T02:07:00;-2.90;99.90
11609;DHT22;5860;52.018;8.536;2022-11-20T02:09:28;-2.90;99.90
11609;DHT22;5860;52.018;8.536;2022-11-20T02:11:55;-2.90;99.90
11609;DHT22;5860;52.018;8.536;2022-11-20T02:14:23;-2.90;99.90
11609;DHT22;5860;52.018;8.536;2022-11-20T02:16:51;-2.90;99.90
11609;DHT22;5860;52.018;8.536;2022-11-20T02:19:26;-2.90;99.90
11609;DHT22;5860;52.018;8.536;2022-11-20T02:24:39;-2.90;99.90
11609;DHT22;5860;52.018;8.536;2022-11-20T02:27:10;-2.90;99.90
11609;DHT22;5860;52.018;8.536;2022-11-20T02:29:54;-2.90;99.90
11609;DHT22;5860;52.018;8.536;2022-11-20T02:34:49;-2.90;99.90
11609;DHT22;5860;52.018;8.536;2022-11-20T02:37:17;-2.90;99.90
11609;DHT22;5860;52.018;8.536;2022-11-20T02:39:46;-2.90;99.90
11609;DHT22;5860;52.018;8.536;2022-11-20T02:42:14;-2.90;99.90
11609;DHT22;5860;52.018;8.536;2022-11-20T02:44:41;-2.90;99.90
11609;DHT22;5860;52.018;8.536;2022-11-20T02:47:08;-2.90;99.90
11609;DHT22;5860;52.018;8.536;2022-11-20T02:49:35;-3.00;99.90
11609;DHT22;5860;52.018;8.536;2022-11-20T02:52:02;-3.00;99.90
11609;DHT22;5860;52.018;8.536;2022-11-20T02:54:29;-2.90;99.90
11609;DHT22;5860;52.018;8.536;2022-11-20T02:56:56;-3.00;99.90
11609;DHT22;5860;52.018;8.536;2022-11-20T02:59:23;-3.00;99.90
11609;DHT22;5860;52.018;8.536;2022-11-20T03:01:50;-3.00;99.90
11609;DHT22;5860;52.018;8.536;2022-11-20T03:04:16;-3.00;99.90
11609;DHT22;5860;52.018;8.536;2022-11-20T03:06:43;-2.90;99.90
11609;DHT22;5860;52.018;8.536;2022-11-20T03:09:10;-2.90;99.90
11609;DHT22;5860;52.018;8.536;2022-11-20T03:11:37;-2.90;99.90
11609;DHT22;5860;52.018;8.536;2022-11-20T03:14:04;-3.00;99.90
11609;DHT22;5860;52.018;8.536;2022-11-20T03:16:32;-3.00;99.90
11609;DHT22;5860;52.018;8.536;2022-11-20T03:19:00;-3.10;99.90
11609;DHT22;5860;52.018;8.536;2022-11-20T03:21:27;-3.10;99.90
11609;DHT22;5860;52.018;8.536;2022-11-20T03:23:54;-3.20;99.90
11609;DHT22;5860;52.018;8.536;2022-11-20T03:26:24;-3.20;99.90
11609;DHT22;5860;52.018;8.536;2022-11-20T03:28:59;-3.30;99.90
11609;DHT22;5860;52.018;8.536;2022-11-20T03:31:28;-3.30;99.90
11609;DHT22;5860;52.018;8.536;2022-11-20T03:33:56;-3.30;99.90
11609;DHT22;5860;52.018;8.536;2022-11-20T03:36:24;-3.30;99.90
11609;DHT22;5860;52.018;8.536;2022-11-20T03:38:52;-3.30;99.90
11609;DHT22;5860;52.018;8.536;2022-11-20T03:41:28;-3.40;99.90
11609;DHT22;5860;52.018;8.536;2022-11-20T03:44:00;-3.40;99.90
11609;DHT22;5860;52.018;8.536;2022-11-20T03:46:27;-3.40;99.90
11609;DHT22;5860;52.018;8.536;2022-11-20T03:48:55;-3.40;99.90
11609;DHT22;5860;52.018;8.536;2022-11-20T03:51:24;-3.40;99.90
11609;DHT22;5860;52.018;8.536;2022-11-20T03:53:53;-3.40;99.90
11609;DHT22;5860;52.018;8.536;2022-11-20T03:56:24;-3.40;99.90
11609;DHT22;5860;52.018;8.536;2022-11-20T03:58:51;-3.40;99.90
11609;DHT22;5860;52.018;8.536;2022-11-20T04:01:20;-3.40;99.90
11609;DHT22;5860;52.018;8.536;2022-11-20T04:03:48;-3.30;99.90
11609;DHT22;5860;52.018;8.536;2022-11-20T04:06:22;-3.40;99.90
11609;DHT22;5860;52.018;8.536;2022-11-20T04:08:49;-3.50;99.90
11609;DHT22;5860;52.018;8.536;2022-11-20T04:11:26;-3.50;99.90
11609;DHT22;5860;52.018;8.536;2022-11-20T04:13:58;-3.40;99.90
11609;DHT22;5860;52.018;8.536;2022-11-20T04:16:29;-3.50;99.90
11609;DHT22;5860;52.018;8.536;2022-11-20T04:18:58;-3.50;99.90
11609;DHT22;5860;52.018;8.536;2022-11-20T04:21:26;-3.50;99.90
11609;DHT22;5860;52.018;8.536;2022-11-20T04:23:53;-3.40;99.90
11609;DHT22;5860;52.018;8.536;2022-11-20T04:26:22;-3.40;99.90
11609;DHT22;5860;52.018;8.536;2022-11-20T04:28:49;-3.40;99.90
11609;DHT22;5860;52.018;8.536;2022-11-20T04:31:18;-3.40;99.90
11609;DHT22;5860;52.018;8.536;2022-11-20T04:33:45;-3.40;99.90
11609;DHT22;5860;52.018;8.536;2022-11-20T04:36:16;-3.30;99.90
11609;DHT22;5860;52.018;8.536;2022-11-20T04:38:44;-3.30;99.90
11609;DHT22;5860;52.018;8.536;2022-11-20T04:41:16;-3.30;99.90
11609;DHT22;5860;52.018;8.536;2022-11-20T04:43:51;-3.40;99.90
11609;DHT22;5860;52.018;8.536;2022-11-20T04:46:20;-3.50;99.90
11609;DHT22;5860;52.018;8.536;2022-11-20T04:48:47;-3.40;99.90
11609;DHT22;5860;52.018;8.536;2022-11-20T04:51:14;-3.50;99.90
11609;DHT22;5860;52.018;8.536;2022-11-20T04:53:41;-3.50;99.90
11609;DHT22;5860;52.018;8.536;2022-11-20T04:56:10;-3.60;99.90
11609;DHT22;5860;52.018;8.536;2022-11-20T04:58:38;-3.60;99.90
11609;DHT22;5860;52.018;8.536;2022-11-20T05:01:12;-3.50;99.90
11609;DHT22;5860;52.018;8.536;2022-11-20T05:03:40;-3.60;99.90
11609;DHT22;5860;52.018;8.536;2022-11-20T05:06:09;-3.60;99.90
11609;DHT22;5860;52.018;8.536;2022-11-20T05:08:36;-3.60;99.90
11609;DHT22;5860;52.018;8.536;2022-11-20T05:11:09;-3.60;99.90
11609;DHT22;5860;52.018;8.536;2022-11-20T05:13:36;-3.60;99.90
11609;DHT22;5860;52.018;8.536;2022-11-20T05:16:23;-3.60;99.90
11609;DHT22;5860;52.018;8.536;2022-11-20T05:18:51;-3.70;99.90
11609;DHT22;5860;52.018;8.536;2022-11-20T05:21:19;-3.60;99.90
11609;DHT22;5860;52.018;8.536;2022-11-20T05:23:46;-3.60;99.90
11609;DHT22;5860;52.018;8.536;2022-11-20T05:26:21;-3.70;99.90
11609;DHT22;5860;52.018;8.536;2022-11-20T05:28:49;-3.60;99.90
11609;DHT22;5860;52.018;8.536;2022-11-20T05:31:26;-3.60;99.90
11609;DHT22;5860;52.018;8.536;2022-11-20T05:33:55;-3.60;99.90
11609;DHT22;5860;52.018;8.536;2022-11-20T05:36:22;-3.60;99.90
11609;DHT22;5860;52.018;8.536;2022-11-20T05:38:49;-3.60;99.90
11609;DHT22;5860;52.018;8.536;2022-11-20T05:41:20;-3.60;99.90
11609;DHT22;5860;52.018;8.536;2022-11-20T05:43:48;-3.70;99.90
11609;DHT22;5860;52.018;8.536;2022-11-20T05:46:20;-3.60;99.90
11609;DHT22;5860;52.018;8.536;2022-11-20T05:48:54;-3.60;99.90
11609;DHT22;5860;52.018;8.536;2022-11-20T05:51:22;-3.70;99.90
11609;DHT22;5860;52.018;8.536;2022-11-20T05:53:48;-3.70;99.90
11609;DHT22;5860;52.018;8.536;2022-11-20T05:56:18;-3.70;99.90
11609;DHT22;5860;52.018;8.536;2022-11-20T05:58:46;-3.70;99.90
11609;DHT22;5860;52.018;8.536;2022-11-20T06:03:42;-3.60;99.90
11609;DHT22;5860;52.018;8.536;2022-11-20T06:06:13;-3.60;99.90
11609;DHT22;5860;52.018;8.536;2022-11-20T06:08:40;-3.60;99.90
11609;DHT22;5860;52.018;8.536;2022-11-20T06:11:10;-3.50;99.90
11609;DHT22;5860;52.018;8.536;2022-11-20T06:13:39;-3.60;99.90
11609;DHT22;5860;52.018;8.536;2022-11-20T06:16:09;-3.70;99.90
11609;DHT22;5860;52.018;8.536;2022-11-20T06:18:36;-3.60;99.90
11609;DHT22;5860;52.018;8.536;2022-11-20T06:21:09;-3.70;99.90
11609;DHT22;5860;52.018;8.536;2022-11-20T06:23:36;-3.60;99.90
11609;DHT22;5860;52.018;8.536;2022-11-20T06:26:08;-3.60;99.90
11609;DHT22;5860;52.018;8.536;2022-11-20T06:28:35;-3.60;99.90
11609;DHT22;5860;52.018;8.536;2022-11-20T06:31:03;-3.40;99.90
11609;DHT22;5860;52.018;8.536;2022-11-20T06:33:30;-3.50;99.90
11609;DHT22;5860;52.018;8.536;2022-11-20T06:35:59;-3.50;99.90
11609;DHT22;5860;52.018;8.536;2022-11-20T06:38:31;-3.60;99.90
11609;DHT22;5860;52.018;8.536;2022-11-20T06:40:58;-3.70;99.90
11609;DHT22;5860;52.018;8.536;2022-11-20T06:43:25;-3.60;99.90
11609;DHT22;5860;52.018;8.536;2022-11-20T06:45:56;-3.80;99.90
11609;DHT22;5860;52.018;8.536;2022-11-20T06:48:24;-3.70;99.90
11609;DHT22;5860;52.018;8.536;2022-11-20T06:50:51;-3.60;99.90
11609;DHT22;5860;52.018;8.536;2022-11-20T06:53:18;-3.70;99.90
11609;DHT22;5860;52.018;8.536;2022-11-20T06:55:46;-3.80;99.90
11609;DHT22;5860;52.018;8.536;2022-11-20T06:58:15;-3.70;99.90
11609;DHT22;5860;52.018;8.536;2022-11-20T07:00:42;-3.60;99.90
11609;DHT22;5860;52.018;8.536;2022-11-20T07:03:10;-3.70;99.90
11609;DHT22;5860;52.018;8.536;2022-11-20T07:05:37;-3.50;99.90
11609;DHT22;5860;52.018;8.536;2022-11-20T07:08:08;-3.40;99.90
11609;DHT22;5860;52.018;8.536;2022-11-20T07:10:34;-3.20;99.90
11609;DHT22;5860;52.018;8.536;2022-11-20T07:13:01;-3.10;99.90
11609;DHT22;5860;52.018;8.536;2022-11-20T07:15:29;-3.00;99.90
11609;DHT22;5860;52.018;8.536;2022-11-20T07:17:59;-3.00;99.90
11609;DHT22;5860;52.018;8.536;2022-11-20T07:20:26;-2.90;99.90
11609;DHT22;5860;52.018;8.536;2022-11-20T07:22:57;-2.80;99.90
11609;DHT22;5860;52.018;8.536;2022-11-20T07:25:25;-2.70;99.90
11609;DHT22;5860;52.018;8.536;2022-11-20T07:27:52;-2.60;99.90
11609;DHT22;5860;52.018;8.536;2022-11-20T07:30:19;-2.50;99.90
11609;DHT22;5860;52.018;8.536;2022-11-20T07:32:47;-2.20;99.90
11609;DHT22;5860;52.018;8.536;2022-11-20T07:35:17;-2.10;99.90
11609;DHT22;5860;52.018;8.536;2022-11-20T07:37:43;-1.80;99.90
11609;DHT22;5860;52.018;8.536;2022-11-20T07:40:12;-1.70;99.90
11609;DHT22;5860;52.018;8.536;2022-11-20T07:42:50;-1.50;99.90
11609;DHT22;5860;52.018;8.536;2022-11-20T07:45:18;-1.40;99.90
11609;DHT22;5860;52.018;8.536;2022-11-20T07:47:45;-1.30;99.90
11609;DHT22;5860;52.018;8.536;2022-11-20T07:50:12;-1.20;99.90
11609;DHT22;5860;52.018;8.536;2022-11-20T07:52:40;-1.10;99.90
11609;DHT22;5860;52.018;8.536;2022-11-20T07:55:08;-1.00;99.90
11609;DHT22;5860;52.018;8.536;2022-11-20T07:57:35;-0.90;99.90
11609;DHT22;5860;52.018;8.536;2022-11-20T08:00:04;-0.90;99.90
11609;DHT22;5860;52.018;8.536;2022-11-20T08:02:31;-0.70;99.90
11609;DHT22;5860;52.018;8.536;2022-11-20T08:04:58;-0.60;99.90
11609;DHT22;5860;52.018;8.536;2022-11-20T08:07:25;-0.60;99.90
11609;DHT22;5860;52.018;8.536;2022-11-20T08:09:52;-0.50;99.90
11609;DHT22;5860;52.018;8.536;2022-11-20T08:12:20;-0.40;99.90
11609;DHT22;5860;52.018;8.536;2022-11-20T08:15:06;-0.30;99.90
11609;DHT22;5860;52.018;8.536;2022-11-20T08:17:39;-0.30;99.90
11609;DHT22;5860;52.018;8.536;2022-11-20T08:20:06;-0.40;99.90
11609;DHT22;5860;52.018;8.536;2022-11-20T08:22:33;-0.50;99.90
11609;DHT22;5860;52.018;8.536;2022-11-20T08:24:59;-0.50;99.90
11609;DHT22;5860;52.018;8.536;2022-11-20T08:27:26;-0.50;99.90
11609;DHT22;5860;52.018;8.536;2022-11-20T08:29:54;-0.60;99.90
11609;DHT22;5860;52.018;8.536;2022-11-20T08:32:20;-0.60;99.90
11609;DHT22;5860;52.018;8.536;2022-11-20T08:34:47;-0.50;99.90
11609;DHT22;5860;52.018;8.536;2022-11-20T08:37:14;-0.60;99.90
11609;DHT22;5860;52.018;8.536;2022-11-20T08:39:41;-0.60;99.90
11609;DHT22;5860;52.018;8.536;2022-11-20T08:42:08;-0.60;99.90
11609;DHT22;5860;52.018;8.536;2022-11-20T08:44:35;-0.60;99.90
11609;DHT22;5860;52.018;8.536;2022-11-20T08:47:02;-0.50;99.90
11609;DHT22;5860;52.018;8.536;2022-11-20T08:49:28;-0.50;99.90
11609;DHT22;5860;52.018;8.536;2022-11-20T08:51:56;-0.50;99.90
11609;DHT22;5860;52.018;8.536;2022-11-20T08:54:23;-0.50;99.90
11609;DHT22;5860;52.018;8.536;2022-11-20T08:56:50;-0.40;99.90
11609;DHT22;5860;52.018;8.536;2022-11-20T08:59:16;-0.40;99.90
11609;DHT22;5860;52.018;8.536;2022-11-20T09:02:03;-0.30;99.90
11609;DHT22;5860;52.018;8.536;2022-11-20T09:04:30;-0.30;99.90
11609;DHT22;5860;52.018;8.536;2022-11-20T09:06:59;-0.20;99.90
11609;DHT22;5860;52.018;8.536;2022-11-20T09:09:26;0.00;99.90
11609;DHT22;5860;52.018;8.536;2022-11-20T09:11:53;0.10;99.90
11609;DHT22;5860;52.018;8.536;2022-11-20T09:14:20;0.10;99.90
11609;DHT22;5860;52.018;8.536;2022-11-20T09:16:47;0.30;99.90
11609;DHT22;5860;52.018;8.536;2022-11-20T09:19:15;0.30;99.90
11609;DHT22;5860;52.018;8.536;2022-11-20T09:22:02;0.40;99.90
11609;DHT22;5860;52.018;8.536;2022-11-20T09:24:29;0.50;99.90
11609;DHT22;5860;52.018;8.536;2022-11-20T09:26:56;0.70;99.90
11609;DHT22;5860;52.018;8.536;2022-11-20T09:29:23;1.40;99.90
11609;DHT22;5860;52.018;8.536;2022-11-20T09:31:50;0.70;99.90
11609;DHT22;5860;52.018;8.536;2022-11-20T09:34:16;0.50;99.90
11609;DHT22;5860;52.018;8.536;2022-11-20T09:36:43;0.60;99.90
11609;DHT22;5860;52.018;8.536;2022-11-20T09:39:11;0.60;99.90
11609;DHT22;5860;52.018;8.536;2022-11-20T09:47:08;1.00;99.90
11609;DHT22;5860;52.018;8.536;2022-11-20T09:52:41;1.10;99.90
11609;DHT22;5860;52.018;8.536;2022-11-20T09:55:12;1.00;99.90
11609;DHT22;5860;52.018;8.536;2022-11-20T09:57:43;1.00;99.90
11609;DHT22;5860;52.018;8.536;2022-11-20T10:00:14;1.00;99.90
11609;DHT22;5860;52.018;8.536;2022-11-20T10:02:55;1.20;99.90
11609;DHT22;5860;52.018;8.536;2022-11-20T10:05:46;1.20;99.90
11609;DHT22;5860;52.018;8.536;2022-11-20T10:08:16;1.30;99.90
11609;DHT22;5860;52.018;8.536;2022-11-20T10:10:50;1.30;99.90
11609;DHT22;5860;52.018;8.536;2022-11-20T10:25:36;1.50;99.90
11609;DHT22;5860;52.018;8.536;2022-11-20T10:30:20;1.40;99.90
11609;DHT22;5860;52.018;8.536;2022-11-20T10:33:00;1.20;99.90
11609;DHT22;5860;52.018;8.536;2022-11-20T10:35:42;1.10;99.90
11609;DHT22;5860;52.018;8.536;2022-11-20T10:38:23;1.20;99.90
11609;DHT22;5860;52.018;8.536;2022-11-20T10:40:56;1.30;99.90
11609;DHT22;5860;52.018;8.536;2022-11-20T10:43:49;1.40;99.90
11609;DHT22;5860;52.018;8.536;2022-11-20T10:46:21;1.40;99.90
11609;DHT22;5860;52.018;8.536;2022-11-20T10:48:49;1.60;99.90
11609;DHT22;5860;52.018;8.536;2022-11-20T10:54:40;1.60;99.90
11609;DHT22;5860;52.018;8.536;2022-11-20T10:57:27;1.60;99.90
11609;DHT22;5860;52.018;8.536;2022-11-20T11:00:05;1.80;99.90
11609;DHT22;5860;52.018;8.536;2022-11-20T11:02:52;1.80;99.90
11609;DHT22;5860;52.018;8.536;2022-11-20T11:05:32;1.70;99.90
11609;DHT22;5860;52.018;8.536;2022-11-20T11:07:59;1.80;99.90
11609;DHT22;5860;52.018;8.536;2022-11-20T11:10:42;1.80;99.90
11609;DHT22;5860;52.018;8.536;2022-11-20T11:13:25;1.80;99.90
11609;DHT22;5860;52.018;8.536;2022-11-20T11:15:53;1.70;99.90
11609;DHT22;5860;52.018;8.536;2022-11-20T11:18:31;1.90;99.90
11609;DHT22;5860;52.018;8.536;2022-11-20T11:21:02;1.70;99.90
11609;DHT22;5860;52.018;8.536;2022-11-20T11:23:31;1.80;99.90
11609;DHT22;5860;52.018;8.536;2022-11-20T11:26:00;1.90;99.90
11609;DHT22;5860;52.018;8.536;2022-11-20T11:28:28;1.90;99.90
11609;DHT22;5860;52.018;8.536;2022-11-20T11:30:55;1.80;99.90
11609;DHT22;5860;52.018;8.536;2022-11-20T11:33:24;1.80;99.90
11609;DHT22;5860;52.018;8.536;2022-11-20T11:35:59;2.00;99.90
11609;DHT22;5860;52.018;8.536;2022-11-20T11:38:36;2.10;99.90
11609;DHT22;5860;52.018;8.536;2022-11-20T11:41:05;2.10;99.90
11609;DHT22;5860;52.018;8.536;2022-11-20T11:43:34;2.10;99.90
11609;DHT22;5860;52.018;8.536;2022-11-20T11:49:00;2.30;99.90
11609;DHT22;5860;52.018;8.536;2022-11-20T11:51:45;2.20;99.90
11609;DHT22;5860;52.018;8.536;2022-11-20T11:54:20;2.10;99.90
11609;DHT22;5860;52.018;8.536;2022-11-20T11:56:49;2.20;99.90
11609;DHT22;5860;52.018;8.536;2022-11-20T11:59:27;2.20;99.90
11609;DHT22;5860;52.018;8.536;2022-11-20T12:01:59;2.30;99.90
11609;DHT22;5860;52.018;8.536;2022-11-20T12:04:52;2.40;99.90
11609;DHT22;5860;52.018;8.536;2022-11-20T12:12:50;2.30;99.90
11609;DHT22;5860;52.018;8.536;2022-11-20T12:15:26;2.30;99.90
11609;DHT22;5860;52.018;8.536;2022-11-20T12:17:55;2.20;99.90
11609;DHT22;5860;52.018;8.536;2022-11-20T12:20:33;2.30;99.90
11609;DHT22;5860;52.018;8.536;2022-11-20T12:23:07;2.30;99.90
11609;DHT22;5860;52.018;8.536;2022-11-20T12:25:36;2.20;99.90
11609;DHT22;5860;52.018;8.536;2022-11-20T12:28:26;2.20;99.90
11609;DHT22;5860;52.018;8.536;2022-11-20T12:31:30;2.20;99.90
11609;DHT22;5860;52.018;8.536;2022-11-20T12:34:12;2.30;99.90
11609;DHT22;5860;52.018;8.536;2022-11-20T12:39:34;2.40;99.90
11609;DHT22;5860;52.018;8.536;2022-11-20T12:45:45;2.50;99.90
11609;DHT22;5860;52.018;8.536;2022-11-20T12:48:33;2.50;99.90
11609;DHT22;5860;52.018;8.536;2022-11-20T12:57:11;2.60;99.90
11609;DHT22;5860;52.018;8.536;2022-11-20T13:00:01;2.60;99.90
11609;DHT22;5860;52.018;8.536;2022-11-20T13:08:20;2.60;99.90
11609;DHT22;5860;52.018;8.536;2022-11-20T13:16:10;2.60;99.90
11609;DHT22;5860;52.018;8.536;2022-11-20T13:18:40;2.60;99.90
11609;DHT22;5860;52.018;8.536;2022-11-20T13:21:34;2.60;99.90
11609;DHT22;5860;52.018;8.536;2022-11-20T13:27:18;2.60;99.90
11609;DHT22;5860;52.018;8.536;2022-11-20T13:30:00;2.60;99.90
11609;DHT22;5860;52.018;8.536;2022-11-20T13:32:28;2.60;99.90
11609;DHT22;5860;52.018;8.536;2022-11-20T13:35:04;2.70;99.90
11609;DHT22;5860;52.018;8.536;2022-11-20T13:37:35;2.60;99.90
11609;DHT22;5860;52.018;8.536;2022-11-20T13:43:10;2.70;99.90
11609;DHT22;5860;52.018;8.536;2022-11-20T13:45:41;2.70;99.90
11609;DHT22;5860;52.018;8.536;2022-11-20T13:48:23;2.70;99.90
11609;DHT22;5860;52.018;8.536;2022-11-20T13:53:44;2.60;99.90
11609;DHT22;5860;52.018;8.536;2022-11-20T14:02:15;2.50;99.90
11609;DHT22;5860;52.018;8.536;2022-11-20T14:04:46;2.40;99.90
11609;DHT22;5860;52.018;8.536;2022-11-20T14:07:14;2.40;99.90
11609;DHT22;5860;52.018;8.536;2022-11-20T14:09:54;2.50;99.90
11609;DHT22;5860;52.018;8.536;2022-11-20T14:12:30;2.50;99.90
11609;DHT22;5860;52.018;8.536;2022-11-20T14:14:58;2.50;99.90
11609;DHT22;5860;52.018;8.536;2022-11-20T14:20:02;2.60;99.90
11609;DHT22;5860;52.018;8.536;2022-11-20T14:22:31;2.60;99.90
11609;DHT22;5860;52.018;8.536;2022-11-20T14:25:17;2.60;99.90
11609;DHT22;5860;52.018;8.536;2022-11-20T14:30:25;2.60;99.90
11609;DHT22;5860;52.018;8.536;2022-11-20T14:32:55;2.60;99.90
11609;DHT22;5860;52.018;8.536;2022-11-20T14:35:34;2.50;99.90
11609;DHT22;5860;52.018;8.536;2022-11-20T14:38:02;2.60;99.90
11609;DHT22;5860;52.018;8.536;2022-11-20T14:40:32;2.50;99.90
11609;DHT22;5860;52.018;8.536;2022-11-20T14:43:14;2.50;99.90
11609;DHT22;5860;52.018;8.536;2022-11-20T14:45:44;2.50;99.90
11609;DHT22;5860;52.018;8.536;2022-11-20T14:48:13;2.50;99.90
11609;DHT22;5860;52.018;8.536;2022-11-20T14:50:40;2.50;99.90
11609;DHT22;5860;52.018;8.536;2022-11-20T14:53:07;2.40;99.90
11609;DHT22;5860;52.018;8.536;2022-11-20T14:55:37;2.40;99.90
11609;DHT22;5860;52.018;8.536;2022-11-20T14:58:28;2.30;99.90
11609;DHT22;5860;52.018;8.536;2022-11-20T15:00:56;2.30;99.90
11609;DHT22;5860;52.018;8.536;2022-11-20T15:03:30;2.30;99.90
11609;DHT22;5860;52.018;8.536;2022-11-20T15:05:57;2.30;99.90
11609;DHT22;5860;52.018;8.536;2022-11-20T15:08:24;2.30;99.90
11609;DHT22;5860;52.018;8.536;2022-11-20T15:10:51;2.30;99.90
11609;DHT22;5860;52.018;8.536;2022-11-20T15:13:26;2.30;99.90
11609;DHT22;5860;52.018;8.536;2022-11-20T15:15:57;2.30;99.90
11609;DHT22;5860;52.018;8.536;2022-11-20T15:18:31;2.30;99.90
11609;DHT22;5860;52.018;8.536;2022-11-20T15:21:01;2.30;99.90
11609;DHT22;5860;52.018;8.536;2022-11-20T15:23:29;2.30;99.90
11609;DHT22;5860;52.018;8.536;2022-11-20T15:25:56;2.30;99.90
11609;DHT22;5860;52.018;8.536;2022-11-20T15:28:31;2.30;99.90
11609;DHT22;5860;52.018;8.536;2022-11-20T15:31:00;2.20;99.90
11609;DHT22;5860;52.018;8.536;2022-11-20T15:33:27;2.20;99.90
11609;DHT22;5860;52.018;8.536;2022-11-20T15:35:54;2.20;99.90
11609;DHT22;5860;52.018;8.536;2022-11-20T15:38:22;2.20;99.90
11609;DHT22;5860;52.018;8.536;2022-11-20T15:40:49;2.20;99.90
11609;DHT22;5860;52.018;8.536;2022-11-20T15:43:16;2.20;99.90
11609;DHT22;5860;52.018;8.536;2022-11-20T15:45:51;2.10;99.90
11609;DHT22;5860;52.018;8.536;2022-11-20T15:48:40;2.10;99.90
11609;DHT22;5860;52.018;8.536;2022-11-20T15:51:31;2.20;99.90
11609;DHT22;5860;52.018;8.536;2022-11-20T15:53:59;2.30;99.90
11609;DHT22;5860;52.018;8.536;2022-11-20T15:56:27;2.30;99.90
11609;DHT22;5860;52.018;8.536;2022-11-20T15:58:54;2.40;99.90
11609;DHT22;5860;52.018;8.536;2022-11-20T16:01:22;2.40;99.90
11609;DHT22;5860;52.018;8.536;2022-11-20T16:03:49;2.40;99.90
11609;DHT22;5860;52.018;8.536;2022-11-20T16:06:16;2.40;99.90
11609;DHT22;5860;52.018;8.536;2022-11-20T16:08:42;2.40;99.90
11609;DHT22;5860;52.018;8.536;2022-11-20T16:11:14;2.40;99.90
11609;DHT22;5860;52.018;8.536;2022-11-20T16:13:42;2.50;99.90
11609;DHT22;5860;52.018;8.536;2022-11-20T16:16:37;2.50;99.90
11609;DHT22;5860;52.018;8.536;2022-11-20T16:19:13;2.50;99.90
11609;DHT22;5860;52.018;8.536;2022-11-20T16:21:40;2.50;99.90
11609;DHT22;5860;52.018;8.536;2022-11-20T16:24:10;2.50;99.90
11609;DHT22;5860;52.018;8.536;2022-11-20T16:26:40;2.50;99.90
11609;DHT22;5860;52.018;8.536;2022-11-20T16:29:07;2.50;99.90
11609;DHT22;5860;52.018;8.536;2022-11-20T16:31:35;2.50;99.90
11609;DHT22;5860;52.018;8.536;2022-11-20T16:34:05;2.50;99.90
11609;DHT22;5860;52.018;8.536;2022-11-20T16:36:41;2.50;99.90
11609;DHT22;5860;52.018;8.536;2022-11-20T16:39:08;2.50;99.90
11609;DHT22;5860;52.018;8.536;2022-11-20T16:41:36;2.50;99.90
11609;DHT22;5860;52.018;8.536;2022-11-20T16:44:08;2.50;99.90
11609;DHT22;5860;52.018;8.536;2022-11-20T16:46:36;2.50;99.90
11609;DHT22;5860;52.018;8.536;2022-11-20T16:49:11;2.50;99.90
11609;DHT22;5860;52.018;8.536;2022-11-20T16:51:38;2.50;99.90
11609;DHT22;5860;52.018;8.536;2022-11-20T16:54:07;2.60;99.90
11609;DHT22;5860;52.018;8.536;2022-11-20T16:56:34;2.50;99.90
11609;DHT22;5860;52.018;8.536;2022-11-20T16:59:02;2.40;99.90
11609;DHT22;5860;52.018;8.536;2022-11-20T17:01:29;2.50;99.90
11609;DHT22;5860;52.018;8.536;2022-11-20T17:04:05;2.40;99.90
11609;DHT22;5860;52.018;8.536;2022-11-20T17:06:35;2.40;99.90
11609;DHT22;5860;52.018;8.536;2022-11-20T17:09:03;2.40;99.90
11609;DHT22;5860;52.018;8.536;2022-11-20T17:11:30;2.40;99.90
11609;DHT22;5860;52.018;8.536;2022-11-20T17:13:57;2.40;99.90
11609;DHT22;5860;52.018;8.536;2022-11-20T17:16:29;2.30;99.90
11609;DHT22;5860;52.018;8.536;2022-11-20T17:18:57;2.30;99.90
11609;DHT22;5860;52.018;8.536;2022-11-20T17:21:29;2.30;99.90
11609;DHT22;5860;52.018;8.536;2022-11-20T17:24:00;2.20;99.90
11609;DHT22;5860;52.018;8.536;2022-11-20T17:26:29;2.10;99.90
11609;DHT22;5860;52.018;8.536;2022-11-20T17:29:01;2.10;99.90
11609;DHT22;5860;52.018;8.536;2022-11-20T17:31:30;2.00;99.90
11609;DHT22;5860;52.018;8.536;2022-11-20T17:33:57;2.00;99.90
11609;DHT22;5860;52.018;8.536;2022-11-20T17:36:28;2.00;99.90
11609;DHT22;5860;52.018;8.536;2022-11-20T17:38:55;1.90;99.90
11609;DHT22;5860;52.018;8.536;2022-11-20T17:41:24;1.90;99.90
11609;DHT22;5860;52.018;8.536;2022-11-20T17:43:56;1.90;99.90